Terminal Aerodrome Forecast
Issued by NWS Springfield, MO

Home | Current Version | Previous Version | Text Only | Print | Product List | Glossary On
Versions: 1 2 3 4 5 6 7 8 9 10 11 12 13 14 15 16 17 18 19 20 21
385
FTUS43 KSGF 161720
TAFSGF
TAF
KSGF 161720Z 1618/1718 20015G23KT P6SM BKN150
     FM162000 20015G23KT P6SM VCTS BKN035CB
      TEMPO 1621/1624 2SM TSRA BR BKN030CB
     FM170000 18011KT P6SM VCSH BKN100
     FM170400 18011KT P6SM VCTS BKN050CB WS020/23040KT
      TEMPO 1704/1708 2SM TSRA BR BKN030CB
     FM171100 23007KT P6SM BKN020
     FM171600 27007KT P6SM BKN035=

USA.gov is the U.S. government's official web portal to all federal, state and local government web resources and services.